sensor_id;sensor_type;location;lat;lon;timestamp;pressure;altitude;pressure_sealevel;temperature;humidity
3697;BME280;60662;48.810;8.872;2023-07-29T07:40:55;96157.19;;;18.01;100.00
3697;BME280;60662;48.810;8.872;2023-07-29T07:41:57;96155.59;;;18.10;100.00
3697;BME280;60662;48.810;8.872;2023-07-29T07:42:58;96159.09;;;18.32;100.00
3697;BME280;60662;48.810;8.872;2023-07-29T07:44:00;96149.41;;;18.63;100.00
3697;BME280;60662;48.810;8.872;2023-07-29T07:45:02;96157.56;;;19.02;100.00
3697;BME280;60662;48.810;8.872;2023-07-29T07:46:03;96150.22;;;19.16;98.46
3697;BME280;60662;48.810;8.872;2023-07-29T07:47:05;96153.09;;;19.44;98.37
3697;BME280;60662;48.810;8.872;2023-07-29T07:48:07;96143.66;;;19.61;96.38
3697;BME280;60662;48.810;8.872;2023-07-29T07:49:11;96147.56;;;19.66;97.02
3697;BME280;60662;48.810;8.872;2023-07-29T07:50:14;96145.50;;;19.80;95.95
3697;BME280;60662;48.810;8.872;2023-07-29T07:51:15;96149.13;;;19.79;93.72
3697;BME280;60662;48.810;8.872;2023-07-29T07:52:17;96146.38;;;19.90;95.19
3697;BME280;60662;48.810;8.872;2023-07-29T07:53:18;96142.47;;;20.04;95.23
3697;BME280;60662;48.810;8.872;2023-07-29T07:54:21;96145.50;;;19.80;95.12
3697;BME280;60662;48.810;8.872;2023-07-29T07:55:22;96136.19;;;19.95;95.17
3697;BME280;60662;48.810;8.872;2023-07-29T07:56:24;96149.84;;;20.39;94.81
3697;BME280;60662;48.810;8.872;2023-07-29T07:57:25;96146.91;;;20.43;93.24
3697;BME280;60662;48.810;8.872;2023-07-29T07:58:27;96150.25;;;20.25;92.34
3697;BME280;60662;48.810;8.872;2023-07-29T07:59:28;96147.50;;;19.97;94.04
3697;BME280;60662;48.810;8.872;2023-07-29T08:00:29;96155.16;;;19.90;96.13
3697;BME280;60662;48.810;8.872;2023-07-29T08:01:35;96146.66;;;20.06;95.08
3697;BME280;60662;48.810;8.872;2023-07-29T08:02:37;96156.41;;;20.35;94.71
3697;BME280;60662;48.810;8.872;2023-07-29T08:03:39;96157.09;;;20.47;93.79
3697;BME280;60662;48.810;8.872;2023-07-29T08:04:41;96160.34;;;20.21;93.74
3697;BME280;60662;48.810;8.872;2023-07-29T08:05:42;96160.16;;;20.03;94.27
3697;BME280;60662;48.810;8.872;2023-07-29T08:06:44;96165.31;;;19.85;94.32
3697;BME280;60662;48.810;8.872;2023-07-29T08:07:45;96174.38;;;19.83;95.77
3697;BME280;60662;48.810;8.872;2023-07-29T08:08:47;96167.91;;;19.56;95.39
3697;BME280;60662;48.810;8.872;2023-07-29T08:09:48;96173.88;;;19.48;95.08
3697;BME280;60662;48.810;8.872;2023-07-29T08:10:50;96179.31;;;19.47;97.59
3697;BME280;60662;48.810;8.872;2023-07-29T08:11:51;96172.31;;;19.36;97.59
3697;BME280;60662;48.810;8.872;2023-07-29T08:12:53;96178.94;;;19.20;98.07
3697;BME280;60662;48.810;8.872;2023-07-29T08:13:54;96178.22;;;19.18;99.25
3697;BME280;60662;48.810;8.872;2023-07-29T08:14:56;96184.31;;;19.09;100.00
3697;BME280;60662;48.810;8.872;2023-07-29T08:15:57;96188.59;;;19.00;99.49
3697;BME280;60662;48.810;8.872;2023-07-29T08:18:55;96180.22;;;18.95;99.72
3697;BME280;60662;48.810;8.872;2023-07-29T08:19:57;96180.56;;;19.12;99.78
3697;BME280;60662;48.810;8.872;2023-07-29T08:20:59;96179.84;;;19.09;99.21
3697;BME280;60662;48.810;8.872;2023-07-29T08:22:04;96183.13;;;19.23;99.22
3697;BME280;60662;48.810;8.872;2023-07-29T08:23:05;96189.25;;;19.23;97.89
3697;BME280;60662;48.810;8.872;2023-07-29T08:24:07;96184.53;;;19.27;98.69
3697;BME280;60662;48.810;8.872;2023-07-29T08:25:09;96177.63;;;19.46;98.88
3697;BME280;60662;48.810;8.872;2023-07-29T08:26:10;96177.63;;;19.46;97.55
3697;BME280;60662;48.810;8.872;2023-07-29T08:27:12;96176.13;;;19.53;96.92
3697;BME280;60662;48.810;8.872;2023-07-29T08:28:13;96188.16;;;19.67;96.66
3697;BME280;60662;48.810;8.872;2023-07-29T08:29:15;96184.84;;;19.84;96.93
3697;BME280;60662;48.810;8.872;2023-07-29T08:30:16;96191.81;;;19.85;94.15
3697;BME280;60662;48.810;8.872;2023-07-29T08:31:19;96185.69;;;19.95;93.29
3697;BME280;60662;48.810;8.872;2023-07-29T08:32:21;96182.78;;;19.98;94.03
3697;BME280;60662;48.810;8.872;2023-07-29T08:33:22;96187.09;;;20.09;92.51
3697;BME280;60662;48.810;8.872;2023-07-29T08:34:24;96187.81;;;20.30;91.92
3697;BME280;60662;48.810;8.872;2023-07-29T08:35:25;96185.44;;;20.47;91.92
3697;BME280;60662;48.810;8.872;2023-07-29T08:36:27;96188.50;;;20.52;93.25
3697;BME280;60662;48.810;8.872;2023-07-29T08:37:28;96187.38;;;20.54;91.41
3697;BME280;60662;48.810;8.872;2023-07-29T08:38:30;96184.84;;;20.63;91.64
3697;BME280;60662;48.810;8.872;2023-07-29T08:39:32;96185.13;;;20.60;91.21
3697;BME280;60662;48.810;8.872;2023-07-29T08:40:34;96186.66;;;20.52;91.73
3697;BME280;60662;48.810;8.872;2023-07-29T08:41:44;96176.91;;;20.43;91.05
3697;BME280;60662;48.810;8.872;2023-07-29T08:42:47;96181.09;;;20.46;92.08
3697;BME280;60662;48.810;8.872;2023-07-29T08:43:52;96183.44;;;20.59;90.79
3697;BME280;60662;48.810;8.872;2023-07-29T08:45:01;96188.91;;;20.37;89.64
3697;BME280;60662;48.810;8.872;2023-07-29T08:46:07;96187.09;;;20.48;90.36
3697;BME280;60662;48.810;8.872;2023-07-29T08:47:09;96183.59;;;20.47;89.97
3697;BME280;60662;48.810;8.872;2023-07-29T08:48:12;96195.59;;;20.51;90.85
3697;BME280;60662;48.810;8.872;2023-07-29T08:49:16;96188.91;;;20.57;90.42
3697;BME280;60662;48.810;8.872;2023-07-29T08:50:22;96191.56;;;20.57;89.85
3697;BME280;60662;48.810;8.872;2023-07-29T08:51:27;96195.34;;;20.45;89.90
3697;BME280;60662;48.810;8.872;2023-07-29T08:52:29;96183.03;;;20.53;90.59
3697;BME280;60662;48.810;8.872;2023-07-29T08:53:33;96187.22;;;20.56;90.06
3697;BME280;60662;48.810;8.872;2023-07-29T08:54:35;96180.94;;;20.57;91.13
3697;BME280;60662;48.810;8.872;2023-07-29T08:55:37;96182.19;;;20.53;90.42
3697;BME280;60662;48.810;8.872;2023-07-29T08:56:43;96176.31;;;20.59;89.30
3697;BME280;60662;48.810;8.872;2023-07-29T08:57:45;96176.31;;;20.59;87.93
3697;BME280;60662;48.810;8.872;2023-07-29T08:58:47;96163.78;;;20.71;88.66
3697;BME280;60662;48.810;8.872;2023-07-29T08:59:48;96172.84;;;20.68;87.50
3697;BME280;60662;48.810;8.872;2023-07-29T09:00:50;96174.22;;;20.82;87.75
3697;BME280;60662;48.810;8.872;2023-07-29T09:01:53;96170.03;;;20.80;86.70
3697;BME280;60662;48.810;8.872;2023-07-29T09:02:58;96178.88;;;21.08;87.17
3697;BME280;60662;48.810;8.872;2023-07-29T09:04:04;96176.69;;;21.31;85.89
3697;BME280;60662;48.810;8.872;2023-07-29T09:05:06;96164.31;;;21.50;84.69
3697;BME280;60662;48.810;8.872;2023-07-29T09:06:07;96159.28;;;21.75;82.93
3697;BME280;60662;48.810;8.872;2023-07-29T09:07:09;96162.88;;;21.56;83.95
3697;BME280;60662;48.810;8.872;2023-07-29T09:08:11;96156.63;;;21.93;85.02
3697;BME280;60662;48.810;8.872;2023-07-29T09:09:13;96158.25;;;22.04;83.27
3697;BME280;60662;48.810;8.872;2023-07-29T09:10:14;96157.31;;;22.13;81.72
3697;BME280;60662;48.810;8.872;2023-07-29T09:11:17;96159.75;;;22.42;80.97
3697;BME280;60662;48.810;8.872;2023-07-29T09:12:18;96157.41;;;22.39;83.12
3697;BME280;60662;48.810;8.872;2023-07-29T09:13:20;96162.28;;;22.44;81.00
3697;BME280;60662;48.810;8.872;2023-07-29T09:14:23;96162.16;;;22.54;79.15
3697;BME280;60662;48.810;8.872;2023-07-29T09:15:29;96157.38;;;22.57;78.23
3697;BME280;60662;48.810;8.872;2023-07-29T09:16:31;96153.97;;;22.29;79.46
3697;BME280;60662;48.810;8.872;2023-07-29T09:17:33;96157.31;;;22.13;80.12
3697;BME280;60662;48.810;8.872;2023-07-29T09:18:35;96156.78;;;21.91;79.22
3697;BME280;60662;48.810;8.872;2023-07-29T09:19:37;96154.97;;;21.92;80.75
3697;BME280;60662;48.810;8.872;2023-07-29T09:20:38;96156.63;;;21.75;78.98
3697;BME280;60662;48.810;8.872;2023-07-29T09:21:40;96153.16;;;21.92;79.61
3697;BME280;60662;48.810;8.872;2023-07-29T09:22:43;96155.66;;;21.94;79.82
3697;BME280;60662;48.810;8.872;2023-07-29T09:23:45;96149.34;;;21.77;80.32
3697;BME280;60662;48.810;8.872;2023-07-29T09:24:47;96153.28;;;21.73;80.19
3697;BME280;60662;48.810;8.872;2023-07-29T09:25:49;96144.56;;;21.52;80.50
3697;BME280;60662;48.810;8.872;2023-07-29T09:26:50;96147.06;;;21.54;80.71
3697;BME280;60662;48.810;8.872;2023-07-29T09:27:52;96148.06;;;21.53;82.78
3697;BME280;60662;48.810;8.872;2023-07-29T09:28:58;96156.00;;;21.63;81.91
3697;BME280;60662;48.810;8.872;2023-07-29T09:30:00;96159.09;;;21.58;82.13
3697;BME280;60662;48.810;8.872;2023-07-29T09:31:02;96164.03;;;21.43;80.42
3697;BME280;60662;48.810;8.872;2023-07-29T09:32:20;96170.63;;;21.11;79.98
3697;BME280;60662;48.810;8.872;2023-07-29T09:33:25;96168.03;;;21.01;79.14
3697;BME280;60662;48.810;8.872;2023-07-29T09:34:28;96168.59;;;20.95;80.22
3697;BME280;60662;48.810;8.872;2023-07-29T09:35:33;96172.94;;;20.86;80.91
3697;BME280;60662;48.810;8.872;2023-07-29T09:36:35;96166.13;;;20.84;81.91
3697;BME280;60662;48.810;8.872;2023-07-29T09:37:39;96167.50;;;20.88;82.00
3697;BME280;60662;48.810;8.872;2023-07-29T09:38:40;96177.69;;;20.83;83.06
3697;BME280;60662;48.810;8.872;2023-07-29T09:39:44;96169.03;;;20.91;83.37
3697;BME280;60662;48.810;8.872;2023-07-29T09:40:46;96176.44;;;20.87;85.79
3697;BME280;60662;48.810;8.872;2023-07-29T09:41:48;96180.22;;;20.84;84.08
3697;BME280;60662;48.810;8.872;2023-07-29T09:42:54;96178.28;;;20.77;81.13
3697;BME280;60662;48.810;8.872;2023-07-29T09:43:57;96179.56;;;20.73;81.78
3697;BME280;60662;48.810;8.872;2023-07-29T09:44:59;96181.22;;;20.74;81.82
3697;BME280;60662;48.810;8.872;2023-07-29T09:46:05;96181.22;;;20.74;84.10
3697;BME280;60662;48.810;8.872;2023-07-29T09:47:08;96177.81;;;20.91;83.21
3697;BME280;60662;48.810;8.872;2023-07-29T09:48:09;96173.56;;;21.08;82.73
3697;BME280;60662;48.810;8.872;2023-07-29T09:49:12;96177.63;;;21.02;83.36
3697;BME280;60662;48.810;8.872;2023-07-29T09:50:13;96184.94;;;20.91;82.88
3697;BME280;60662;48.810;8.872;2023-07-29T09:51:15;96186.63;;;20.82;81.10
3697;BME280;60662;48.810;8.872;2023-07-29T09:52:18;96183.88;;;20.74;81.04
3697;BME280;60662;48.810;8.872;2023-07-29T09:53:20;96188.59;;;20.60;82.78
3697;BME280;60662;48.810;8.872;2023-07-29T09:54:22;96185.09;;;20.69;83.60
3697;BME280;60662;48.810;8.872;2023-07-29T09:55:24;96188.88;;;20.77;83.96
3697;BME280;60662;48.810;8.872;2023-07-29T09:56:27;96199.47;;;20.67;86.93
3697;BME280;60662;48.810;8.872;2023-07-29T09:57:29;96194.06;;;20.68;88.74
3697;BME280;60662;48.810;8.872;2023-07-29T09:58:32;96191.00;;;20.44;89.76
3697;BME280;60662;48.810;8.872;2023-07-29T09:59:34;96185.84;;;20.32;91.33
3697;BME280;60662;48.810;8.872;2023-07-29T10:00:36;96188.50;;;20.32;90.92
3697;BME280;60662;48.810;8.872;2023-07-29T10:01:39;96190.19;;;20.33;90.35
3697;BME280;60662;48.810;8.872;2023-07-29T10:02:42;96185.97;;;20.21;91.19
3697;BME280;60662;48.810;8.872;2023-07-29T10:03:45;96180.28;;;20.26;91.11
3697;BME280;60662;48.810;8.872;2023-07-29T10:04:47;96183.19;;;20.32;90.12
3697;BME280;60662;48.810;8.872;2023-07-29T10:05:49;96187.38;;;20.35;89.43
3697;BME280;60662;48.810;8.872;2023-07-29T10:06:51;96194.22;;;20.37;89.70
3697;BME280;60662;48.810;8.872;2023-07-29T10:07:53;96189.16;;;20.44;89.55
3697;BME280;60662;48.810;8.872;2023-07-29T10:08:55;96181.66;;;20.49;90.02
3697;BME280;60662;48.810;8.872;2023-07-29T10:09:57;96191.16;;;20.52;90.32
3697;BME280;60662;48.810;8.872;2023-07-29T10:10:59;96192.94;;;20.51;90.81
3697;BME280;60662;48.810;8.872;2023-07-29T10:12:01;96187.22;;;20.56;89.99
3697;BME280;60662;48.810;8.872;2023-07-29T10:13:03;96186.41;;;20.46;89.61
3697;BME280;60662;48.810;8.872;2023-07-29T10:14:06;96190.00;;;20.64;90.11
3697;BME280;60662;48.810;8.872;2023-07-29T10:15:09;96195.03;;;20.48;90.29
3697;BME280;60662;48.810;8.872;2023-07-29T10:16:11;96191.41;;;20.49;91.19
3697;BME280;60662;48.810;8.872;2023-07-29T10:17:15;96193.50;;;20.45;89.91
3697;BME280;60662;48.810;8.872;2023-07-29T10:18:18;96193.94;;;20.31;89.45
3697;BME280;60662;48.810;8.872;2023-07-29T10:19:20;96190.75;;;20.37;92.04
3697;BME280;60662;48.810;8.872;2023-07-29T10:20:23;96205.66;;;20.28;90.41
3697;BME280;60662;48.810;8.872;2023-07-29T10:21:25;96196.75;;;20.29;89.54
3697;BME280;60662;48.810;8.872;2023-07-29T10:22:29;96198.41;;;20.30;90.11
3697;BME280;60662;48.810;8.872;2023-07-29T10:23:37;96204.97;;;20.46;90.39
3697;BME280;60662;48.810;8.872;2023-07-29T10:24:41;96207.06;;;20.71;90.30
3697;BME280;60662;48.810;8.872;2023-07-29T10:25:47;96194.16;;;20.67;88.35
3697;BME280;60662;48.810;8.872;2023-07-29T10:26:51;96203.44;;;20.73;87.63
3697;BME280;60662;48.810;8.872;2023-07-29T10:27:57;96204.91;;;20.95;88.25
3697;BME280;60662;48.810;8.872;2023-07-29T10:29:04;96199.91;;;21.29;85.53
3697;BME280;60662;48.810;8.872;2023-07-29T10:30:12;96211.56;;;21.46;84.66
3697;BME280;60662;48.810;8.872;2023-07-29T10:31:17;96200.97;;;21.36;84.89
3697;BME280;60662;48.810;8.872;2023-07-29T10:32:22;96201.44;;;21.60;85.49
3697;BME280;60662;48.810;8.872;2023-07-29T10:33:26;96200.38;;;22.16;83.69
3697;BME280;60662;48.810;8.872;2023-07-29T10:34:29;96204.88;;;22.34;81.99
3697;BME280;60662;48.810;8.872;2023-07-29T10:35:34;96203.34;;;22.31;82.96
3697;BME280;60662;48.810;8.872;2023-07-29T10:36:36;96202.75;;;22.20;81.27
3697;BME280;60662;48.810;8.872;2023-07-29T10:37:39;96204.22;;;22.76;81.99
3697;BME280;60662;48.810;8.872;2023-07-29T10:38:41;96199.41;;;23.24;79.28
3697;BME280;60662;48.810;8.872;2023-07-29T10:39:52;96189.72;;;23.58;81.33
3697;BME280;60662;48.810;8.872;2023-07-29T10:40:55;96185.97;;;23.34;80.12
3697;BME280;60662;48.810;8.872;2023-07-29T10:42:01;96183.25;;;23.18;79.75
3697;BME280;60662;48.810;8.872;2023-07-29T10:43:09;96183.50;;;23.14;79.03
3697;BME280;60662;48.810;8.872;2023-07-29T10:45:54;96181.22;;;23.20;76.44
3697;BME280;60662;48.810;8.872;2023-07-29T10:47:17;96174.91;;;23.21;75.24
3697;BME280;60662;48.810;8.872;2023-07-29T10:49:47;96169.59;;;22.94;75.30
3697;BME280;60662;48.810;8.872;2023-07-29T10:50:48;96181.09;;;23.03;75.61
3697;BME280;60662;48.810;8.872;2023-07-29T10:51:50;96180.44;;;23.01;75.11
3697;BME280;60662;48.810;8.872;2023-07-29T10:52:56;96186.97;;;23.07;75.39
3697;BME280;60662;48.810;8.872;2023-07-29T10:54:00;96188.06;;;22.96;74.94
3697;BME280;60662;48.810;8.872;2023-07-29T10:55:03;96194.94;;;22.54;74.80
3697;BME280;60662;48.810;8.872;2023-07-29T10:56:05;96192.34;;;22.44;75.59
3697;BME280;60662;48.810;8.872;2023-07-29T10:57:06;96191.75;;;22.50;76.98
3697;BME280;60662;48.810;8.872;2023-07-29T10:58:17;96188.38;;;22.30;77.69
3697;BME280;60662;48.810;8.872;2023-07-29T11:00:20;96188.69;;;22.63;77.00
3697;BME280;60662;48.810;8.872;2023-07-29T11:01:30;96182.03;;;22.86;75.94
3697;BME280;60662;48.810;8.872;2023-07-29T11:02:38;96182.16;;;22.84;75.45
3697;BME280;60662;48.810;8.872;2023-07-29T11:03:39;96185.09;;;22.99;74.89
3697;BME280;60662;48.810;8.872;2023-07-29T11:04:49;96180.25;;;22.94;75.54
3697;BME280;60662;48.810;8.872;2023-07-29T11:05:53;96183.91;;;22.93;75.53
3697;BME280;60662;48.810;8.872;2023-07-29T11:08:27;96183.06;;;22.66;72.11
3697;BME280;60662;48.810;8.872;2023-07-29T11:11:02;96192.25;;;23.25;74.63
3697;BME280;60662;48.810;8.872;2023-07-29T11:12:41;96186.56;;;22.93;74.43
3697;BME280;60662;48.810;8.872;2023-07-29T11:13:47;96184.53;;;22.87;75.86
3697;BME280;60662;48.810;8.872;2023-07-29T11:14:48;96180.81;;;23.06;74.90
3697;BME280;60662;48.810;8.872;2023-07-29T11:15:50;96178.16;;;23.33;73.77
3697;BME280;60662;48.810;8.872;2023-07-29T11:16:52;96172.63;;;22.99;73.32
3697;BME280;60662;48.810;8.872;2023-07-29T11:17:56;96166.97;;;22.76;74.55
3697;BME280;60662;48.810;8.872;2023-07-29T11:18:59;96172.50;;;23.36;73.58
3697;BME280;60662;48.810;8.872;2023-07-29T11:20:02;96172.38;;;23.54;73.87
3697;BME280;60662;48.810;8.872;2023-07-29T11:21:04;96169.56;;;23.55;72.43
3697;BME280;60662;48.810;8.872;2023-07-29T11:22:06;96162.88;;;23.51;71.62
3697;BME280;60662;48.810;8.872;2023-07-29T11:23:07;96161.78;;;23.70;71.99
3697;BME280;60662;48.810;8.872;2023-07-29T11:24:09;96167.25;;;24.11;70.84
3697;BME280;60662;48.810;8.872;2023-07-29T11:25:13;96156.59;;;24.28;69.50
3697;BME280;60662;48.810;8.872;2023-07-29T11:26:15;96170.91;;;24.10;69.67
3697;BME280;60662;48.810;8.872;2023-07-29T11:27:16;96160.16;;;23.77;70.29
3697;BME280;60662;48.810;8.872;2023-07-29T11:28:18;96157.72;;;23.50;69.61
3697;BME280;60662;48.810;8.872;2023-07-29T11:29:19;96154.94;;;23.59;70.81
3697;BME280;60662;48.810;8.872;2023-07-29T11:30:21;96163.44;;;23.63;70.97
3697;BME280;60662;48.810;8.872;2023-07-29T11:31:38;96171.22;;;24.07;70.71
3697;BME280;60662;48.810;8.872;2023-07-29T11:32:41;96176.75;;;24.22;68.91
3697;BME280;60662;48.810;8.872;2023-07-29T11:33:42;96168.06;;;24.28;68.78
3697;BME280;60662;48.810;8.872;2023-07-29T11:34:44;96176.75;;;24.31;67.07
3697;BME280;60662;48.810;8.872;2023-07-29T11:35:45;96172.25;;;24.31;67.71
3697;BME280;60662;48.810;8.872;2023-07-29T11:36:47;96176.41;;;24.34;67.12
3697;BME280;60662;48.810;8.872;2023-07-29T11:37:50;96174.69;;;24.00;67.69
3697;BME280;60662;48.810;8.872;2023-07-29T11:38:52;96176.97;;;23.78;68.11
3697;BME280;60662;48.810;8.872;2023-07-29T11:39:53;96168.63;;;23.73;69.29
3697;BME280;60662;48.810;8.872;2023-07-29T11:41:00;96170.81;;;23.86;70.02
3697;BME280;60662;48.810;8.872;2023-07-29T11:42:02;96171.84;;;23.85;68.73
3697;BME280;60662;48.810;8.872;2023-07-29T11:43:04;96169.03;;;23.94;69.26
3697;BME280;60662;48.810;8.872;2023-07-29T11:44:09;96162.75;;;24.04;68.22
3697;BME280;60662;48.810;8.872;2023-07-29T11:45:12;96168.56;;;23.99;68.89
3697;BME280;60662;48.810;8.872;2023-07-29T11:46:21;96170.41;;;24.23;69.12
3697;BME280;60662;48.810;8.872;2023-07-29T11:47:22;96150.41;;;24.27;67.73
3697;BME280;60662;48.810;8.872;2023-07-29T11:48:31;96172.03;;;24.00;67.22
3697;BME280;60662;48.810;8.872;2023-07-29T11:49:34;96167.75;;;24.15;67.26
3697;BME280;60662;48.810;8.872;2023-07-29T11:50:35;96167.06;;;24.21;68.01
3697;BME280;60662;48.810;8.872;2023-07-29T11:51:37;96165.09;;;24.32;67.46
3697;BME280;60662;48.810;8.872;2023-07-29T11:52:40;96175.91;;;24.30;67.54
3697;BME280;60662;48.810;8.872;2023-07-29T11:53:43;96173.59;;;24.27;65.80
3697;BME280;60662;48.810;8.872;2023-07-29T11:54:45;96169.06;;;24.44;65.72
3697;BME280;60662;48.810;8.872;2023-07-29T11:55:51;96164.41;;;24.21;67.11
3697;BME280;60662;48.810;8.872;2023-07-29T11:56:55;96166.06;;;23.98;67.05
3697;BME280;60662;48.810;8.872;2023-07-29T11:57:57;96167.22;;;23.52;64.26
3697;BME280;60662;48.810;8.872;2023-07-29T11:58:59;96167.00;;;23.37;64.34
3697;BME280;60662;48.810;8.872;2023-07-29T12:00:02;96167.34;;;23.34;63.99
3697;BME280;60662;48.810;8.872;2023-07-29T12:01:05;96171.25;;;23.22;64.79
3697;BME280;60662;48.810;8.872;2023-07-29T12:02:15;96170.25;;;22.96;65.18
3697;BME280;60662;48.810;8.872;2023-07-29T12:03:17;96163.91;;;22.89;65.27
3697;BME280;60662;48.810;8.872;2023-07-29T12:04:19;96162.09;;;22.90;65.61
3697;BME280;60662;48.810;8.872;2023-07-29T12:05:22;96157.84;;;23.05;65.60
3697;BME280;60662;48.810;8.872;2023-07-29T12:06:24;96167.88;;;23.46;64.94
3697;BME280;60662;48.810;8.872;2023-07-29T12:07:26;96163.13;;;23.66;63.72
3697;BME280;60662;48.810;8.872;2023-07-29T12:08:27;96154.06;;;23.51;63.60
3697;BME280;60662;48.810;8.872;2023-07-29T12:09:29;96163.97;;;23.83;62.61
3697;BME280;60662;48.810;8.872;2023-07-29T12:10:31;96171.09;;;24.25;62.82
3697;BME280;60662;48.810;8.872;2023-07-29T12:11:34;96165.56;;;24.19;62.06
3697;BME280;60662;48.810;8.872;2023-07-29T12:12:49;96154.88;;;24.02;62.29
3697;BME280;60662;48.810;8.872;2023-07-29T12:13:53;96162.81;;;23.77;63.32
3697;BME280;60662;48.810;8.872;2023-07-29T12:14:55;96170.25;;;23.57;62.73
3697;BME280;60662;48.810;8.872;2023-07-29T12:16:03;96169.53;;;23.12;62.85
3697;BME280;60662;48.810;8.872;2023-07-29T12:17:06;96163.75;;;23.17;64.10
3697;BME280;60662;48.810;8.872;2023-07-29T12:18:07;96168.16;;;23.35;63.45
3697;BME280;60662;48.810;8.872;2023-07-29T12:19:13;96160.50;;;23.40;62.55
3697;BME280;60662;48.810;8.872;2023-07-29T12:20:14;96163.06;;;23.58;63.32
3697;BME280;60662;48.810;8.872;2023-07-29T12:21:18;96157.84;;;23.40;61.83
3697;BME280;60662;48.810;8.872;2023-07-29T12:22:20;96168.94;;;23.19;61.57
3697;BME280;60662;48.810;8.872;2023-07-29T12:23:26;96163.75;;;23.52;61.55
3697;BME280;60662;48.810;8.872;2023-07-29T12:24:29;96168.09;;;23.69;61.31
3697;BME280;60662;48.810;8.872;2023-07-29T12:25:31;96167.53;;;23.41;61.95
3697;BME280;60662;48.810;8.872;2023-07-29T12:26:32;96168.69;;;23.38;63.18
3697;BME280;60662;48.810;8.872;2023-07-29T12:27:34;96155.13;;;23.23;63.42
3697;BME280;60662;48.810;8.872;2023-07-29T12:28:36;96162.00;;;23.34;62.98
3697;BME280;60662;48.810;8.872;2023-07-29T12:29:41;96163.00;;;23.33;62.69
3697;BME280;60662;48.810;8.872;2023-07-29T12:30:43;96159.06;;;23.54;62.85
3697;BME280;60662;48.810;8.872;2023-07-29T12:31:45;96150.16;;;23.88;62.52
3697;BME280;60662;48.810;8.872;2023-07-29T12:32:47;96153.38;;;24.16;61.97
3697;BME280;60662;48.810;8.872;2023-07-29T12:33:55;96153.75;;;24.29;61.64
3697;BME280;60662;48.810;8.872;2023-07-29T12:34:57;96157.72;;;24.17;61.29
3697;BME280;60662;48.810;8.872;2023-07-29T12:35:59;96145.06;;;24.36;61.26
3697;BME280;60662;48.810;8.872;2023-07-29T12:37:02;96152.91;;;24.21;60.64
3697;BME280;60662;48.810;8.872;2023-07-29T12:38:04;96156.06;;;24.16;61.74
3697;BME280;60662;48.810;8.872;2023-07-29T12:39:05;96167.56;;;24.08;61.44
3697;BME280;60662;48.810;8.872;2023-07-29T12:40:07;96169.06;;;24.19;61.53
3697;BME280;60662;48.810;8.872;2023-07-29T12:41:09;96166.91;;;24.31;59.91
3697;BME280;60662;48.810;8.872;2023-07-29T12:42:10;96158.41;;;24.44;59.63
3697;BME280;60662;48.810;8.872;2023-07-29T12:43:11;96154.75;;;24.70;58.65
3697;BME280;60662;48.810;8.872;2023-07-29T12:44:13;96149.44;;;25.18;59.22
3697;BME280;60662;48.810;8.872;2023-07-29T12:45:17;96157.41;;;25.42;59.37
3697;BME280;60662;48.810;8.872;2023-07-29T12:46:19;96144.25;;;25.41;59.01
3697;BME280;60662;48.810;8.872;2023-07-29T12:47:20;96151.81;;;25.61;58.60
3697;BME280;60662;48.810;8.872;2023-07-29T12:48:22;96151.38;;;26.12;57.19
3697;BME280;60662;48.810;8.872;2023-07-29T12:49:24;96150.09;;;25.99;57.08
3697;BME280;60662;48.810;8.872;2023-07-29T12:50:26;96152.50;;;25.54;57.84
3697;BME280;60662;48.810;8.872;2023-07-29T12:51:27;96155.53;;;25.51;58.25
3697;BME280;60662;48.810;8.872;2023-07-29T12:52:29;96158.59;;;25.32;56.16
3697;BME280;60662;48.810;8.872;2023-07-29T12:53:30;96151.56;;;25.47;56.82
3697;BME280;60662;48.810;8.872;2023-07-29T12:54:32;96154.56;;;25.52;57.03
3697;BME280;60662;48.810;8.872;2023-07-29T12:55:33;96149.13;;;25.92;57.73
3697;BME280;60662;48.810;8.872;2023-07-29T12:56:35;96157.56;;;25.81;57.92
3697;BME280;60662;48.810;8.872;2023-07-29T12:57:37;96146.44;;;25.69;57.52
3697;BME280;60662;48.810;8.872;2023-07-29T12:58:38;96157.91;;;25.46;57.62
3697;BME280;60662;48.810;8.872;2023-07-29T12:59:40;96141.91;;;25.30;57.12
3697;BME280;60662;48.810;8.872;2023-07-29T13:00:41;96147.50;;;25.12;58.04
3697;BME280;60662;48.810;8.872;2023-07-29T13:01:43;96154.91;;;24.60;57.84
3697;BME280;60662;48.810;8.872;2023-07-29T13:02:44;96142.06;;;24.55;58.43
3697;BME280;60662;48.810;8.872;2023-07-29T13:03:47;96143.56;;;24.50;58.36
3697;BME280;60662;48.810;8.872;2023-07-29T13:04:49;96144.25;;;24.43;59.19
3697;BME280;60662;48.810;8.872;2023-07-29T13:05:51;96147.25;;;24.32;58.98
3697;BME280;60662;48.810;8.872;2023-07-29T13:06:53;96140.38;;;24.21;59.48
3697;BME280;60662;48.810;8.872;2023-07-29T13:07:54;96142.41;;;24.19;60.53
3697;BME280;60662;48.810;8.872;2023-07-29T13:08:56;96146.09;;;24.10;59.09
3697;BME280;60662;48.810;8.872;2023-07-29T13:09:57;96144.53;;;24.07;58.86
3697;BME280;60662;48.810;8.872;2023-07-29T13:10:59;96147.56;;;23.96;59.99
3697;BME280;60662;48.810;8.872;2023-07-29T13:12:01;96153.38;;;23.91;60.51
3697;BME280;60662;48.810;8.872;2023-07-29T13:13:02;96162.56;;;24.13;59.41
3697;BME280;60662;48.810;8.872;2023-07-29T13:14:04;96156.41;;;24.38;58.36
3697;BME280;60662;48.810;8.872;2023-07-29T13:15:06;96149.72;;;24.34;57.42
3697;BME280;60662;48.810;8.872;2023-07-29T13:16:08;96148.38;;;24.62;57.12
3697;BME280;60662;48.810;8.872;2023-07-29T13:17:09;96150.06;;;24.80;56.70
3697;BME280;60662;48.810;8.872;2023-07-29T13:18:11;96156.41;;;24.79;57.79
3697;BME280;60662;48.810;8.872;2023-07-29T13:19:12;96151.56;;;24.74;57.88
3697;BME280;60662;48.810;8.872;2023-07-29T13:20:14;96153.75;;;24.71;57.26
3697;BME280;60662;48.810;8.872;2023-07-29T13:21:16;96150.41;;;24.52;57.68
3697;BME280;60662;48.810;8.872;2023-07-29T13:22:17;96149.88;;;24.24;58.45
3697;BME280;60662;48.810;8.872;2023-07-29T13:23:19;96152.41;;;24.09;59.01
3697;BME280;60662;48.810;8.872;2023-07-29T13:24:20;96152.66;;;23.89;59.18
3697;BME280;60662;48.810;8.872;2023-07-29T13:25:22;96154.47;;;23.80;60.09
3697;BME280;60662;48.810;8.872;2023-07-29T13:26:23;96155.28;;;23.73;60.41
3697;BME280;60662;48.810;8.872;2023-07-29T13:27:24;96148.13;;;23.65;61.43